Aviation Digital Data Service (ADDS)

Output produced by METARs form (0656 UTC 20 March 2019)
found at http://www.aviationweather.gov/metar/data/
 
METAR text: CYHZ 200600Z 24005KT 15SM SKC M06/M12 A3029 RMK SLP267
Conditions at: CYHZ (HALIFAX INTL ARP, NS, CA) observed 0600 UTC 20 March 2019
Temperature: -6.0°C (21°F)
Dewpoint: -12.0°C (10°F) [RH = 62%]
Pressure (altimeter): 30.29 inches Hg (1025.8 mb)
[Sea-level pressure: 1026.7 mb]
Winds: from the WSW (240 degrees) at 6 MPH (5 knots; 2.6 m/s)
Visibility: 15 miles (24 km)
Ceiling: at least 12,000 feet AGL
Clouds: clear skies
Weather: no significant weather observed at this time

METAR text: CYHZ 200500Z 26008KT 15SM SKC M05/M13 A3029 RMK SLP267
Conditions at: CYHZ (HALIFAX INTL ARP, NS, CA) observed 0500 UTC 20 March 2019
Temperature: -5.0°C (23°F)
Dewpoint: -13.0°C ( 9°F) [RH = 53%]
Pressure (altimeter): 30.29 inches Hg (1025.8 mb)
[Sea-level pressure: 1026.7 mb]
Winds: from the W (260 degrees) at 9 MPH (8 knots; 4.1 m/s)
Visibility: 15 miles (24 km)
Ceiling: at least 12,000 feet AGL
Clouds: clear skies
Weather: no significant weather observed at this time

METAR text: CYHZ 200400Z 25007KT 15SM SKC M05/M13 A3029 RMK SLP266
Conditions at: CYHZ (HALIFAX INTL ARP, NS, CA) observed 0400 UTC 20 March 2019
Temperature: -5.0°C (23°F)
Dewpoint: -13.0°C ( 9°F) [RH = 53%]
Pressure (altimeter): 30.29 inches Hg (1025.8 mb)
[Sea-level pressure: 1026.6 mb]
Winds: from the WSW (250 degrees) at 8 MPH (7 knots; 3.6 m/s)
Visibility: 15 miles (24 km)
Ceiling: at least 12,000 feet AGL
Clouds: clear skies
Weather: no significant weather observed at this time

METAR text: CYHZ 200300Z 25005KT 15SM SKC M05/M13 A3029 RMK SLP266
Conditions at: CYHZ (HALIFAX INTL ARP, NS, CA) observed 0300 UTC 20 March 2019
Temperature: -5.0°C (23°F)
Dewpoint: -13.0°C ( 9°F) [RH = 53%]
Pressure (altimeter): 30.29 inches Hg (1025.8 mb)
[Sea-level pressure: 1026.6 mb]
Winds: from the WSW (250 degrees) at 6 MPH (5 knots; 2.6 m/s)
Visibility: 15 miles (24 km)
Ceiling: at least 12,000 feet AGL
Clouds: clear skies
Weather: no significant weather observed at this time

METAR text: CYHZ 200200Z 30005KT 15SM SKC M04/M13 A3029 RMK SLP266
Conditions at: CYHZ (HALIFAX INTL ARP, NS, CA) observed 0200 UTC 20 March 2019
Temperature: -4.0°C (25°F)
Dewpoint: -13.0°C ( 9°F) [RH = 50%]
Pressure (altimeter): 30.29 inches Hg (1025.8 mb)
[Sea-level pressure: 1026.6 mb]
Winds: from the WNW (300 degrees) at 6 MPH (5 knots; 2.6 m/s)
Visibility: 15 miles (24 km)
Ceiling: at least 12,000 feet AGL
Clouds: clear skies
Weather: no significant weather observed at this time

METAR text: CYHZ 200100Z 32006KT 15SM SKC M04/M13 A3028 RMK SLP265
Conditions at: CYHZ (HALIFAX INTL ARP, NS, CA) observed 0100 UTC 20 March 2019
Temperature: -4.0°C (25°F)
Dewpoint: -13.0°C ( 9°F) [RH = 50%]
Pressure (altimeter): 30.28 inches Hg (1025.5 mb)
[Sea-level pressure: 1026.5 mb]
Winds: from the NW (320 degrees) at 7 MPH (6 knots; 3.1 m/s)
Visibility: 15 miles (24 km)
Ceiling: at least 12,000 feet AGL
Clouds: clear skies
Weather: no significant weather observed at this time

METAR text: CYHZ 200000Z 32007KT 15SM SKC M03/M13 A3027 RMK SLP261
Conditions at: CYHZ (HALIFAX INTL ARP, NS, CA) observed 0000 UTC 20 March 2019
Temperature: -3.0°C (27°F)
Dewpoint: -13.0°C ( 9°F) [RH = 46%]
Pressure (altimeter): 30.27 inches Hg (1025.1 mb)
[Sea-level pressure: 1026.1 mb]
Winds: from the NW (320 degrees) at 8 MPH (7 knots; 3.6 m/s)
Visibility: 15 miles (24 km)
Ceiling: at least 12,000 feet AGL
Clouds: clear skies
Weather: no significant weather observed at this time

METAR text: CYHZ 192300Z 32006KT 15SM FEW050 M03/M13 A3025 RMK SC1 SC TR SLP254
Conditions at: CYHZ (HALIFAX INTL ARP, NS, CA) observed 2300 UTC 19 March 2019
Temperature: -3.0°C (27°F)
Dewpoint: -13.0°C ( 9°F) [RH = 46%]
Pressure (altimeter): 30.25 inches Hg (1024.5 mb)
[Sea-level pressure: 1025.4 mb]
Winds: from the NW (320 degrees) at 7 MPH (6 knots; 3.1 m/s)
Visibility: 15 miles (24 km)
Ceiling: at least 12,000 feet AGL
Clouds: few clouds at 5000 feet AGL
Weather: no significant weather observed at this time

METAR text: CYHZ 192200Z 31011KT 15SM FEW060 M01/M14 A3023 RMK SC1 SC TR SLP246
Conditions at: CYHZ (HALIFAX INTL ARP, NS, CA) observed 2200 UTC 19 March 2019
Temperature: -1.0°C (30°F)
Dewpoint: -14.0°C ( 7°F) [RH = 37%]
Pressure (altimeter): 30.23 inches Hg (1023.8 mb)
[Sea-level pressure: 1024.6 mb]
Winds: from the NW (310 degrees) at 13 MPH (11 knots; 5.7 m/s)
Visibility: 15 miles (24 km)
Ceiling: at least 12,000 feet AGL
Clouds: few clouds at 6000 feet AGL
Weather: no significant weather observed at this time

METAR text: CYHZ 192100Z 31012KT 290V350 15SM FEW060 M00/M13 A3021 RMK CU2 SLP240
Conditions at: CYHZ (HALIFAX INTL ARP, NS, CA) observed 2100 UTC 19 March 2019
Temperature: 0.0°C (32°F)
Dewpoint: -13.0°C ( 9°F) [RH = 37%]
Pressure (altimeter): 30.21 inches Hg (1023.1 mb)
[Sea-level pressure: 1024.0 mb]
Winds: from the NW (310 degrees) at 14 MPH (12 knots; 6.2 m/s)
Visibility: 15 miles (24 km)
Ceiling: at least 12,000 feet AGL
Clouds: few clouds at 6000 feet AGL
Weather: no significant weather observed at this time

METAR text: CYHZ 192000Z 28012G19KT 15SM FEW050 00/M13 A3021 RMK CU2 SLP240
Conditions at: CYHZ (HALIFAX INTL ARP, NS, CA) observed 2000 UTC 19 March 2019
Temperature: 0.0°C (32°F)
Dewpoint: -13.0°C ( 9°F) [RH = 37%]
Pressure (altimeter): 30.21 inches Hg (1023.1 mb)
[Sea-level pressure: 1024.0 mb]
Winds: from the W (280 degrees) at 14 MPH (12 knots; 6.2 m/s)
gusting to 22 MPH (19 knots; 9.8 m/s)
Visibility: 15 miles (24 km)
Ceiling: at least 12,000 feet AGL
Clouds: few clouds at 5000 feet AGL
Weather: no significant weather observed at this time

METAR text: CYHZ 191900Z CCA 29011KT 15SM BKN053 00/M12 A3021 RMK CU5 SLP241
Conditions at: CYHZ (HALIFAX INTL ARP, NS, CA) observed 1900 UTC 19 March 2019
Temperature: 0.0°C (32°F)
Dewpoint: -12.0°C (10°F) [RH = 40%]
Pressure (altimeter): 30.21 inches Hg (1023.1 mb)
[Sea-level pressure: 1024.1 mb]
Winds: from the WNW (290 degrees) at 13 MPH (11 knots; 5.7 m/s)
Visibility: 15 miles (24 km)
Ceiling: 5300 feet AGL
Clouds: broken clouds at 5300 feet AGL
Weather: no significant weather observed at this time

METAR text: CYHZ 191800Z 31013G20KT 15SM BKN055 00/M11 A3021 RMK CU6 SLP241
Conditions at: CYHZ (HALIFAX INTL ARP, NS, CA) observed 1800 UTC 19 March 2019
Temperature: 0.0°C (32°F)
Dewpoint: -11.0°C (12°F) [RH = 43%]
Pressure (altimeter): 30.21 inches Hg (1023.1 mb)
[Sea-level pressure: 1024.1 mb]
Winds: from the NW (310 degrees) at 15 MPH (13 knots; 6.7 m/s)
gusting to 23 MPH (20 knots; 10.3 m/s)
Visibility: 15 miles (24 km)
Ceiling: 5500 feet AGL
Clouds: broken clouds at 5500 feet AGL
Weather: no significant weather observed at this time

METAR text: CYHZ 191700Z 32012KT 260V350 15SM BKN055 00/M11 A3023 RMK CU6 SLP245
Conditions at: CYHZ (HALIFAX INTL ARP, NS, CA) observed 1700 UTC 19 March 2019
Temperature: 0.0°C (32°F)
Dewpoint: -11.0°C (12°F) [RH = 43%]
Pressure (altimeter): 30.23 inches Hg (1023.8 mb)
[Sea-level pressure: 1024.5 mb]
Winds: from the NW (320 degrees) at 14 MPH (12 knots; 6.2 m/s)
Visibility: 15 miles (24 km)
Ceiling: 5500 feet AGL
Clouds: broken clouds at 5500 feet AGL
Weather: no significant weather observed at this time

METAR text: CYHZ 191600Z 30006KT 260V350 15SM BKN055 M01/M13 A3024 RMK CU6 SLP250
Conditions at: CYHZ (HALIFAX INTL ARP, NS, CA) observed 1600 UTC 19 March 2019
Temperature: -1.0°C (30°F)
Dewpoint: -13.0°C ( 9°F) [RH = 40%]
Pressure (altimeter): 30.24 inches Hg (1024.1 mb)
[Sea-level pressure: 1025.0 mb]
Winds: from the WNW (300 degrees) at 7 MPH (6 knots; 3.1 m/s)
Visibility: 15 miles (24 km)
Ceiling: 5500 feet AGL
Clouds: broken clouds at 5500 feet AGL
Weather: no significant weather observed at this time

METAR text: CYHZ 191500Z 25007KT 230V320 15SM SCT048 M01/M12 A3025 RMK CU3 SHWRS DSNT SW SLP253
Conditions at: CYHZ (HALIFAX INTL ARP, NS, CA) observed 1500 UTC 19 March 2019
Temperature: -1.0°C (30°F)
Dewpoint: -12.0°C (10°F) [RH = 43%]
Pressure (altimeter): 30.25 inches Hg (1024.5 mb)
[Sea-level pressure: 1025.3 mb]
Winds: from the WSW (250 degrees) at 8 MPH (7 knots; 3.6 m/s)
Visibility: 15 miles (24 km)
Ceiling: at least 12,000 feet AGL
Clouds: scattered clouds at 4800 feet AGL
Weather: no significant weather observed at this time

METAR text: CYHZ 191400Z VRB03KT 15SM FEW040 M03/M12 A3025 RMK CU1 SLP254
Conditions at: CYHZ (HALIFAX INTL ARP, NS, CA) observed 1400 UTC 19 March 2019
Temperature: -3.0°C (27°F)
Dewpoint: -12.0°C (10°F) [RH = 50%]
Pressure (altimeter): 30.25 inches Hg (1024.5 mb)
[Sea-level pressure: 1025.4 mb]
Winds: variable direction winds at 3 MPH (3 knots; 1.5 m/s)
Visibility: 15 miles (24 km)
Ceiling: at least 12,000 feet AGL
Clouds: few clouds at 4000 feet AGL
Weather: no significant weather observed at this time

METAR text: CYHZ 191300Z 36008KT 15SM FEW040 M04/M13 A3025 RMK SC1 SC TR SLP254
Conditions at: CYHZ (HALIFAX INTL ARP, NS, CA) observed 1300 UTC 19 March 2019
Temperature: -4.0°C (25°F)
Dewpoint: -13.0°C ( 9°F) [RH = 50%]
Pressure (altimeter): 30.25 inches Hg (1024.5 mb)
[Sea-level pressure: 1025.4 mb]
Winds: from the N (360 degrees) at 9 MPH (8 knots; 4.1 m/s)
Visibility: 15 miles (24 km)
Ceiling: at least 12,000 feet AGL
Clouds: few clouds at 4000 feet AGL
Weather: no significant weather observed at this time

METAR text: CYHZ 191200Z 34005KT 15SM SKC M05/M13 A3024 RMK SLP250
Conditions at: CYHZ (HALIFAX INTL ARP, NS, CA) observed 1200 UTC 19 March 2019
Temperature: -5.0°C (23°F)
Dewpoint: -13.0°C ( 9°F) [RH = 53%]
Pressure (altimeter): 30.24 inches Hg (1024.1 mb)
[Sea-level pressure: 1025.0 mb]
Winds: from the NNW (340 degrees) at 6 MPH (5 knots; 2.6 m/s)
Visibility: 15 miles (24 km)
Ceiling: at least 12,000 feet AGL
Clouds: clear skies
Weather: no significant weather observed at this time

METAR text: CYHZ 191100Z 34005KT 15SM SKC M07/M12 A3024 RMK SLP251
Conditions at: CYHZ (HALIFAX INTL ARP, NS, CA) observed 1100 UTC 19 March 2019
Temperature: -7.0°C (19°F)
Dewpoint: -12.0°C (10°F) [RH = 67%]
Pressure (altimeter): 30.24 inches Hg (1024.1 mb)
[Sea-level pressure: 1025.1 mb]
Winds: from the NNW (340 degrees) at 6 MPH (5 knots; 2.6 m/s)
Visibility: 15 miles (24 km)
Ceiling: at least 12,000 feet AGL
Clouds: clear skies
Weather: no significant weather observed at this time

METAR text: CYHZ 191000Z 36004KT 15SM SKC M08/M12 A3022 RMK SLP243
Conditions at: CYHZ (HALIFAX INTL ARP, NS, CA) observed 1000 UTC 19 March 2019
Temperature: -8.0°C (18°F)
Dewpoint: -12.0°C (10°F) [RH = 73%]
Pressure (altimeter): 30.22 inches Hg (1023.5 mb)
[Sea-level pressure: 1024.3 mb]
Winds: from the N (360 degrees) at 5 MPH (4 knots; 2.1 m/s)
Visibility: 15 miles (24 km)
Ceiling: at least 12,000 feet AGL
Clouds: clear skies
Weather: no significant weather observed at this time

METAR text: CYHZ 190900Z 36005KT 15SM SKC M08/M11 A3020 RMK SLP237
Conditions at: CYHZ (HALIFAX INTL ARP, NS, CA) observed 0900 UTC 19 March 2019
Temperature: -8.0°C (18°F)
Dewpoint: -11.0°C (12°F) [RH = 79%]
Pressure (altimeter): 30.20 inches Hg (1022.8 mb)
[Sea-level pressure: 1023.7 mb]
Winds: from the N (360 degrees) at 6 MPH (5 knots; 2.6 m/s)
Visibility: 15 miles (24 km)
Ceiling: at least 12,000 feet AGL
Clouds: clear skies
Weather: no significant weather observed at this time

METAR text: CYHZ 190800Z 36005KT 15SM SKC M07/M11 A3019 RMK SLP232
Conditions at: CYHZ (HALIFAX INTL ARP, NS, CA) observed 0800 UTC 19 March 2019
Temperature: -7.0°C (19°F)
Dewpoint: -11.0°C (12°F) [RH = 73%]
Pressure (altimeter): 30.19 inches Hg (1022.4 mb)
[Sea-level pressure: 1023.2 mb]
Winds: from the N (360 degrees) at 6 MPH (5 knots; 2.6 m/s)
Visibility: 15 miles (24 km)
Ceiling: at least 12,000 feet AGL
Clouds: clear skies
Weather: no significant weather observed at this time

METAR text: CYHZ 190700Z 35004KT 15SM SKC M07/M11 A3019 RMK SLP232
Conditions at: CYHZ (HALIFAX INTL ARP, NS, CA) observed 0700 UTC 19 March 2019
Temperature: -7.0°C (19°F)
Dewpoint: -11.0°C (12°F) [RH = 73%]
Pressure (altimeter): 30.19 inches Hg (1022.4 mb)
[Sea-level pressure: 1023.2 mb]
Winds: from the N (350 degrees) at 5 MPH (4 knots; 2.1 m/s)
Visibility: 15 miles (24 km)
Ceiling: at least 12,000 feet AGL
Clouds: clear skies
Weather: no significant weather observed at this time

METAR text: CYHZ 190600Z 30005KT 15SM SKC M06/M11 A3019 RMK SLP233
Conditions at: CYHZ (HALIFAX INTL ARP, NS, CA) observed 0600 UTC 19 March 2019
Temperature: -6.0°C (21°F)
Dewpoint: -11.0°C (12°F) [RH = 68%]
Pressure (altimeter): 30.19 inches Hg (1022.4 mb)
[Sea-level pressure: 1023.3 mb]
Winds: from the WNW (300 degrees) at 6 MPH (5 knots; 2.6 m/s)
Visibility: 15 miles (24 km)
Ceiling: at least 12,000 feet AGL
Clouds: clear skies
Weather: no significant weather observed at this time

METAR text: CYHZ 190500Z 27005KT 15SM SKC M05/M11 A3019 RMK SLP232
Conditions at: CYHZ (HALIFAX INTL ARP, NS, CA) observed 0500 UTC 19 March 2019
Temperature: -5.0°C (23°F)
Dewpoint: -11.0°C (12°F) [RH = 63%]
Pressure (altimeter): 30.19 inches Hg (1022.4 mb)
[Sea-level pressure: 1023.2 mb]
Winds: from the W (270 degrees) at 6 MPH (5 knots; 2.6 m/s)
Visibility: 15 miles (24 km)
Ceiling: at least 12,000 feet AGL
Clouds: clear skies
Weather: no significant weather observed at this time

METAR text: CYHZ 190400Z 27007KT 15SM SKC M05/M11 A3018 RMK SLP231
Conditions at: CYHZ (HALIFAX INTL ARP, NS, CA) observed 0400 UTC 19 March 2019
Temperature: -5.0°C (23°F)
Dewpoint: -11.0°C (12°F) [RH = 63%]
Pressure (altimeter): 30.18 inches Hg (1022.1 mb)
[Sea-level pressure: 1023.1 mb]
Winds: from the W (270 degrees) at 8 MPH (7 knots; 3.6 m/s)
Visibility: 15 miles (24 km)
Ceiling: at least 12,000 feet AGL
Clouds: clear skies
Weather: no significant weather observed at this time

METAR text: CYHZ 190300Z 25007KT 15SM SKC M04/M11 A3018 RMK SLP229
Conditions at: CYHZ (HALIFAX INTL ARP, NS, CA) observed 0300 UTC 19 March 2019
Temperature: -4.0°C (25°F)
Dewpoint: -11.0°C (12°F) [RH = 58%]
Pressure (altimeter): 30.18 inches Hg (1022.1 mb)
[Sea-level pressure: 1022.9 mb]
Winds: from the WSW (250 degrees) at 8 MPH (7 knots; 3.6 m/s)
Visibility: 15 miles (24 km)
Ceiling: at least 12,000 feet AGL
Clouds: clear skies
Weather: no significant weather observed at this time

METAR text: CYHZ 190200Z 25008KT 15SM FEW050 M04/M12 A3017 RMK SC1 SC TR SLP227
Conditions at: CYHZ (HALIFAX INTL ARP, NS, CA) observed 0200 UTC 19 March 2019
Temperature: -4.0°C (25°F)
Dewpoint: -12.0°C (10°F) [RH = 54%]
Pressure (altimeter): 30.17 inches Hg (1021.8 mb)
[Sea-level pressure: 1022.7 mb]
Winds: from the WSW (250 degrees) at 9 MPH (8 knots; 4.1 m/s)
Visibility: 15 miles (24 km)
Ceiling: at least 12,000 feet AGL
Clouds: few clouds at 5000 feet AGL
Weather: no significant weather observed at this time

METAR text: CYHZ 190100Z 26006KT 15SM SKC M04/M11 A3016 RMK SLP223
Conditions at: CYHZ (HALIFAX INTL ARP, NS, CA) observed 0100 UTC 19 March 2019
Temperature: -4.0°C (25°F)
Dewpoint: -11.0°C (12°F) [RH = 58%]
Pressure (altimeter): 30.16 inches Hg (1021.4 mb)
[Sea-level pressure: 1022.3 mb]
Winds: from the W (260 degrees) at 7 MPH (6 knots; 3.1 m/s)
Visibility: 15 miles (24 km)
Ceiling: at least 12,000 feet AGL
Clouds: clear skies
Weather: no significant weather observed at this time

METAR text: CYHZ 190000Z 29008KT 15SM SKC M03/M12 A3013 RMK SLP214
Conditions at: CYHZ (HALIFAX INTL ARP, NS, CA) observed 0000 UTC 19 March 2019
Temperature: -3.0°C (27°F)
Dewpoint: -12.0°C (10°F) [RH = 50%]
Pressure (altimeter): 30.13 inches Hg (1020.4 mb)
[Sea-level pressure: 1021.4 mb]
Winds: from the WNW (290 degrees) at 9 MPH (8 knots; 4.1 m/s)
Visibility: 15 miles (24 km)
Ceiling: at least 12,000 feet AGL
Clouds: clear skies
Weather: no significant weather observed at this time

METAR text: CYHZ 182300Z 29009KT 15SM SKC M02/M12 A3010 RMK SLP204
Conditions at: CYHZ (HALIFAX INTL ARP, NS, CA) observed 2300 UTC 18 March 2019
Temperature: -2.0°C (28°F)
Dewpoint: -12.0°C (10°F) [RH = 46%]
Pressure (altimeter): 30.10 inches Hg (1019.4 mb)
[Sea-level pressure: 1020.4 mb]
Winds: from the WNW (290 degrees) at 10 MPH (9 knots; 4.6 m/s)
Visibility: 15 miles (24 km)
Ceiling: at least 12,000 feet AGL
Clouds: clear skies
Weather: no significant weather observed at this time

METAR text: CYHZ 182200Z 30010KT 15SM SCT060 M01/M12 A3008 RMK SC3 SLP195
Conditions at: CYHZ (HALIFAX INTL ARP, NS, CA) observed 2200 UTC 18 March 2019
Temperature: -1.0°C (30°F)
Dewpoint: -12.0°C (10°F) [RH = 43%]
Pressure (altimeter): 30.08 inches Hg (1018.7 mb)
[Sea-level pressure: 1019.5 mb]
Winds: from the WNW (300 degrees) at 12 MPH (10 knots; 5.1 m/s)
Visibility: 15 miles (24 km)
Ceiling: at least 12,000 feet AGL
Clouds: scattered clouds at 6000 feet AGL
Weather: no significant weather observed at this time

METAR text: CYHZ 182100Z 31010G17KT 15SM BKN065 M00/M11 A3004 RMK CU5 SLP182
Conditions at: CYHZ (HALIFAX INTL ARP, NS, CA) observed 2100 UTC 18 March 2019
Temperature: 0.0°C (32°F)
Dewpoint: -11.0°C (12°F) [RH = 43%]
Pressure (altimeter): 30.04 inches Hg (1017.4 mb)
[Sea-level pressure: 1018.2 mb]
Winds: from the NW (310 degrees) at 12 MPH (10 knots; 5.1 m/s)
gusting to 20 MPH (17 knots; 8.7 m/s)
Visibility: 15 miles (24 km)
Ceiling: 6500 feet AGL
Clouds: broken clouds at 6500 feet AGL
Weather: no significant weather observed at this time

METAR text: CYHZ 182000Z 30013KT 15SM BKN060 BKN210 00/M12 A3002 RMK SC6CI1 SLP175
Conditions at: CYHZ (HALIFAX INTL ARP, NS, CA) observed 2000 UTC 18 March 2019
Temperature: 0.0°C (32°F)
Dewpoint: -12.0°C (10°F) [RH = 40%]
Pressure (altimeter): 30.02 inches Hg (1016.7 mb)
[Sea-level pressure: 1017.5 mb]
Winds: from the WNW (300 degrees) at 15 MPH (13 knots; 6.7 m/s)
Visibility: 15 miles (24 km)
Ceiling: 6000 feet AGL
Clouds: broken clouds at 6000 feet AGL
broken clouds at 21000 feet AGL
Weather: no significant weather observed at this time

METAR text: CYHZ 181900Z 26012G19KT 15SM BKN059 00/M13 A3002 RMK SC6 SLP175
Conditions at: CYHZ (HALIFAX INTL ARP, NS, CA) observed 1900 UTC 18 March 2019
Temperature: 0.0°C (32°F)
Dewpoint: -13.0°C ( 9°F) [RH = 37%]
Pressure (altimeter): 30.02 inches Hg (1016.7 mb)
[Sea-level pressure: 1017.5 mb]
Winds: from the W (260 degrees) at 14 MPH (12 knots; 6.2 m/s)
gusting to 22 MPH (19 knots; 9.8 m/s)
Visibility: 15 miles (24 km)
Ceiling: 5900 feet AGL
Clouds: broken clouds at 5900 feet AGL
Weather: no significant weather observed at this time

Forecast for: CYHZ (HALIFAX INTL ARP, NS, CA)
Text: TAF CYHZ 200538Z 2006/2106 26008KT P6SM SKC
Forecast period: 0600 to 1300 UTC 20 March 2019
Forecast type: FROM: standard forecast or significant change
Winds: from the W (260 degrees) at 9 MPH (8 knots; 4.1 m/s)
Visibility: 6 or more miles 10+ km)
Clouds: clear skies
Weather: no significant weather forecast for this period
Text: BECMG 2013/2015 27012G22KT
Forecast period: 1300 to 1700 UTC 20 March 2019
Forecast type: BECOMING: Conditions expected to become as follows by 1500 UTC 20 March 2019
Winds: from the W (270 degrees) at 14 MPH (12 knots; 6.2 m/s)
gusting to 25 MPH (22 knots; 11.3 m/s)
Visibility: 6 or more miles 10+ km)
Clouds: clear skies
Weather: no significant weather forecast for this period
Text: FM201700 27012G22KT P6SM SCT050
Forecast period: 1700 to 2200 UTC 20 March 2019
Forecast type: FROM: standard forecast or significant change
Winds: from the W (270 degrees) at 14 MPH (12 knots; 6.2 m/s)
gusting to 25 MPH (22 knots; 11.3 m/s)
Visibility: 6 or more miles 10+ km)
Ceiling: at least 12,000 feet AGL
Clouds: scattered clouds at 5000 feet AGL
Weather: no significant weather forecast for this period
Text: BECMG 2022/2024 23007KT RMK NXT FCST BY 200900Z
Forecast period: 2200 UTC 20 March 2019 to 0600 UTC 21 March 2019
Forecast type: BECOMING: Conditions expected to become as follows by 0000 UTC 21 March 2019
Winds: from the SW (230 degrees) at 8 MPH (7 knots; 3.6 m/s)
Visibility: 6 or more miles 10+ km)
Ceiling: at least 12,000 feet AGL
Clouds: scattered clouds at 5000 feet AGL
Weather: no significant weather forecast for this period